createdAt,value
2022-08-05T00:01:36.467Z,1.15
2022-08-05T00:04:18.129Z,1.05
2022-08-05T00:06:47.051Z,0.90
2022-08-05T00:09:19.707Z,1.02
2022-08-05T00:11:55.847Z,0.90
2022-08-05T00:14:31.364Z,1.02
2022-08-05T00:17:01.701Z,1.00
2022-08-05T00:19:32.927Z,1.05
2022-08-05T00:22:04.337Z,1.00
2022-08-05T00:24:32.611Z,1.35
2022-08-05T00:27:04.678Z,1.00
2022-08-05T00:29:39.317Z,1.37
2022-08-05T00:32:12.975Z,1.23
2022-08-05T00:35:04.987Z,1.17
2022-08-05T00:37:51.322Z,1.20
2022-08-05T00:40:26.827Z,1.37
2022-08-05T00:43:00.752Z,1.10
2022-08-05T00:45:43.064Z,1.05
2022-08-05T00:48:14.642Z,0.98
2022-08-05T00:50:46.602Z,0.80
2022-08-05T00:53:59.933Z,1.00
2022-08-05T00:56:07.966Z,1.05
2022-08-05T00:58:36.836Z,1.10
2022-08-05T01:01:08.570Z,0.90
2022-08-05T01:03:40.478Z,1.10
2022-08-05T01:06:11.235Z,1.17
2022-08-05T01:08:47.247Z,1.12
2022-08-05T01:11:24.140Z,1.25
2022-08-05T01:14:09.545Z,1.23
2022-08-05T01:16:52.514Z,1.02
2022-08-05T01:20:01.022Z,1.00
2022-08-05T01:22:50.330Z,0.98
2022-08-05T01:25:53.169Z,0.73
2022-08-05T01:28:34.292Z,1.00
2022-08-05T01:31:21.535Z,1.10
2022-08-05T01:34:10.308Z,1.00
2022-08-05T01:36:47.617Z,0.80
2022-08-05T01:39:46.288Z,1.02
2022-08-05T01:42:09.615Z,1.20
2022-08-05T01:44:39.631Z,1.08
2022-08-05T01:47:10.681Z,1.23
2022-08-05T01:50:01.704Z,1.15
2022-08-05T01:52:36.313Z,1.10
2022-08-05T01:55:11.819Z,1.12
2022-08-05T01:58:11.070Z,0.77
2022-08-05T02:00:35.265Z,0.95
2022-08-05T02:03:29.165Z,0.98
2022-08-05T02:06:03.727Z,1.00
2022-08-05T02:08:58.467Z,1.33
2022-08-05T02:11:37.602Z,0.95
2022-08-05T02:14:21.328Z,1.45
2022-08-05T02:16:55.376Z,1.10
2022-08-05T02:19:34.214Z,1.08
2022-08-05T02:22:32.307Z,0.85
2022-08-05T02:25:26.054Z,1.10
2022-08-05T02:28:08.662Z,1.30
2022-08-05T02:30:54.328Z,1.02
2022-08-05T02:33:38.240Z,1.08
2022-08-05T02:36:15.363Z,1.20
2022-08-05T02:38:53.325Z,1.20
2022-08-05T02:41:28.333Z,1.00
2022-08-05T02:44:02.919Z,1.00
2022-08-05T02:46:53.737Z,1.27
2022-08-05T02:49:35.861Z,1.30
2022-08-05T02:52:13.512Z,1.10
2022-08-05T02:54:55.277Z,1.23
2022-08-05T02:58:11.667Z,1.02
2022-08-05T03:00:15.015Z,0.93
2022-08-05T03:02:47.008Z,0.98
2022-08-05T03:05:16.277Z,0.93
2022-08-05T03:08:04.526Z,0.98
2022-08-05T03:10:34.583Z,1.17
2022-08-05T03:13:11.115Z,1.02
2022-08-05T03:15:46.329Z,1.30
2022-08-05T03:18:17.297Z,1.02
2022-08-05T03:20:48.667Z,1.00
2022-08-05T03:23:18.035Z,1.20
2022-08-05T03:26:04.982Z,1.20
2022-08-05T03:28:35.956Z,0.80
2022-08-05T03:31:04.813Z,1.10
2022-08-05T03:33:51.003Z,1.00
2022-08-05T03:36:30.536Z,1.27
2022-08-05T03:38:58.995Z,1.20
2022-08-05T03:41:32.997Z,1.20
2022-08-05T03:44:10.256Z,1.17
2022-08-05T03:46:40.491Z,1.15
2022-08-05T03:49:08.599Z,1.05
2022-08-05T03:52:50.622Z,1.48
2022-08-05T03:55:51.763Z,0.98
2022-08-05T03:57:41.349Z,1.20
2022-08-05T04:00:15.643Z,1.00
2022-08-05T04:02:58.774Z,1.10
2022-08-05T04:05:34.468Z,1.10
2022-08-05T04:08:14.708Z,1.17
2022-08-05T04:10:57.117Z,0.90
2022-08-05T04:13:27.861Z,1.17
2022-08-05T04:16:15.776Z,1.25
2022-08-05T04:18:54.887Z,1.02
2022-08-05T04:22:08.093Z,1.00
2022-08-05T04:24:18.736Z,1.50
2022-08-05T04:26:47.959Z,1.23
2022-08-05T04:29:16.469Z,1.10
2022-08-05T04:31:44.539Z,1.20
2022-08-05T04:34:31.997Z,1.17
2022-08-05T04:37:03.177Z,1.00
2022-08-05T04:39:33.537Z,1.00
2022-08-05T04:42:04.066Z,1.00
2022-08-05T04:44:32.451Z,1.35
2022-08-05T04:47:09.544Z,1.27
2022-08-05T04:50:01.422Z,0.85
2022-08-05T04:52:28.284Z,1.30
2022-08-05T04:54:57.790Z,1.20
2022-08-05T04:57:28.612Z,1.17
2022-08-05T04:59:58.536Z,1.20
2022-08-05T05:02:36.082Z,1.10
2022-08-05T05:05:16.751Z,1.23
2022-08-05T05:08:29.916Z,1.20
2022-08-05T05:10:59.078Z,1.10
2022-08-05T05:13:32.330Z,1.05
2022-08-05T05:16:12.063Z,1.00
2022-08-05T05:19:02.507Z,1.35
2022-08-05T05:21:33.106Z,1.30
2022-08-05T05:24:04.332Z,1.40
2022-08-05T05:26:37.903Z,1.20
2022-08-05T05:29:14.336Z,1.15
2022-08-05T05:31:46.363Z,1.48
2022-08-05T05:34:15.553Z,1.27
2022-08-05T05:36:47.075Z,1.10
2022-08-05T05:39:16.583Z,1.10
2022-08-05T05:41:54.246Z,1.40
2022-08-05T05:44:37.520Z,1.20
2022-08-05T05:47:21.405Z,1.30
2022-08-05T05:49:56.943Z,1.17
2022-08-05T05:52:33.179Z,0.98
2022-08-05T05:55:13.588Z,0.80
2022-08-05T05:57:52.720Z,1.20
2022-08-05T06:00:27.823Z,1.23
2022-08-05T06:03:03.525Z,1.17
2022-08-05T06:05:54.249Z,1.27
2022-08-05T06:08:32.539Z,0.90
2022-08-05T06:11:01.560Z,1.17
2022-08-05T06:13:30.811Z,1.10
2022-08-05T06:16:29.831Z,1.70
2022-08-05T06:18:57.281Z,1.30
2022-08-05T06:21:36.444Z,1.62
2022-08-05T06:24:11.476Z,1.00
2022-08-05T06:26:51.113Z,1.02
2022-08-05T06:29:24.979Z,1.10
2022-08-05T06:32:21.117Z,1.15
2022-08-05T06:34:56.638Z,1.27
2022-08-05T06:37:57.636Z,1.37
2022-08-05T06:40:18.319Z,1.10
2022-08-05T06:42:51.924Z,1.30
2022-08-05T06:45:44.580Z,1.12
2022-08-05T06:48:36.174Z,1.10
2022-08-05T06:51:00.146Z,1.20
2022-08-05T06:53:29.149Z,0.95
2022-08-05T06:55:58.995Z,1.17
2022-08-05T06:58:34.974Z,1.08
2022-08-05T07:01:06.600Z,1.02
2022-08-05T07:03:35.301Z,1.30
2022-08-05T07:06:06.213Z,1.05
2022-08-05T07:08:47.732Z,1.02
2022-08-05T07:11:22.503Z,1.12
2022-08-05T07:14:20.735Z,1.40
2022-08-05T07:18:00.996Z,1.00
2022-08-05T07:22:42.247Z,0.95
2022-08-05T07:25:54.272Z,1.12
2022-08-05T07:28:05.374Z,1.30
2022-08-05T07:30:38.393Z,1.30
2022-08-05T07:33:15.931Z,1.40
2022-08-05T07:36:01.694Z,1.60
2022-08-05T07:38:43.636Z,1.25
2022-08-05T07:42:13.425Z,1.45
2022-08-05T07:44:18.743Z,1.30
2022-08-05T07:46:49.699Z,1.10
2022-08-05T07:49:19.170Z,1.20
2022-08-05T07:51:53.828Z,1.25
2022-08-05T07:54:30.773Z,1.65
2022-08-05T07:57:22.478Z,1.20
2022-08-05T07:59:51.602Z,1.20
2022-08-05T08:02:30.928Z,1.20
2022-08-05T08:05:17.359Z,1.30
2022-08-05T08:07:59.994Z,1.40
2022-08-05T08:10:30.315Z,1.00
2022-08-05T08:12:59.002Z,1.30
2022-08-05T08:15:37.421Z,1.50
2022-08-05T08:18:15.775Z,1.50
2022-08-05T08:21:01.838Z,1.65
2022-08-05T08:24:01.884Z,1.25
2022-08-05T08:26:27.129Z,1.80
2022-08-05T08:29:02.325Z,1.40
2022-08-05T08:31:50.862Z,1.42
2022-08-05T08:34:30.684Z,1.50
2022-08-05T08:37:04.880Z,1.33
2022-08-05T08:39:37.444Z,1.40
2022-08-05T08:42:22.520Z,1.23
2022-08-05T08:45:23.212Z,1.48
2022-08-05T08:48:12.835Z,1.62
2022-08-05T08:51:03.739Z,1.60
2022-08-05T08:53:34.255Z,1.60
2022-08-05T08:56:06.039Z,1.50
2022-08-05T08:58:37.617Z,1.70
2022-08-05T09:01:16.241Z,1.70
2022-08-05T09:03:55.650Z,1.70
2022-08-05T09:06:29.733Z,1.58
2022-08-05T09:09:01.193Z,1.70
2022-08-05T09:11:51.783Z,1.58
2022-08-05T09:14:56.768Z,1.60
2022-08-05T09:17:40.793Z,1.60
2022-08-05T09:20:04.847Z,1.50
2022-08-05T09:23:05.049Z,1.80
2022-08-05T09:26:01.098Z,1.85
2022-08-05T09:28:32.173Z,1.58
2022-08-05T09:31:18.166Z,1.67
2022-08-05T09:34:02.664Z,1.60
2022-08-05T09:36:55.251Z,1.60
2022-08-05T09:42:23.182Z,1.73
2022-08-05T09:44:56.461Z,1.80
2022-08-05T09:47:48.074Z,1.62
2022-08-05T09:50:38.835Z,1.70
2022-08-05T09:53:08.693Z,1.60
2022-08-05T09:55:56.289Z,1.70
2022-08-05T09:58:29.022Z,1.80
2022-08-05T10:01:14.709Z,1.70
2022-08-05T10:04:10.413Z,2.03
2022-08-05T10:06:59.030Z,2.10
2022-08-05T10:09:29.765Z,2.00
2022-08-05T10:12:30.562Z,2.08
2022-08-05T10:15:16.937Z,1.90
2022-08-05T10:18:04.677Z,1.70
2022-08-05T10:20:35.601Z,2.08
2022-08-05T10:23:04.483Z,2.05
2022-08-05T10:28:12.750Z,1.65
2022-08-05T10:32:47.176Z,1.60
2022-08-05T10:33:36.189Z,1.80
2022-08-05T10:36:05.288Z,1.90
2022-08-05T10:38:35.869Z,1.73
2022-08-05T10:41:45.322Z,1.98
2022-08-05T10:44:20.755Z,1.60
2022-08-05T10:46:53.955Z,1.55
2022-08-05T10:49:33.020Z,1.92
2022-08-05T10:52:05.230Z,1.80
2022-08-05T10:55:03.999Z,1.80
2022-08-05T10:57:34.272Z,1.92
2022-08-05T11:00:20.044Z,1.80
2022-08-05T11:03:23.300Z,1.70
2022-08-05T11:06:15.913Z,1.67
2022-08-05T11:11:44.513Z,1.90
2022-08-05T11:17:58.768Z,1.90
2022-08-05T11:20:38.949Z,1.60
2022-08-05T11:24:03.782Z,1.67
2022-08-05T11:26:43.278Z,1.60
2022-08-05T11:29:35.977Z,1.65
2022-08-05T11:32:27.892Z,1.60
2022-08-05T11:34:57.500Z,1.70
2022-08-05T11:38:31.029Z,1.40
2022-08-05T11:41:34.702Z,1.60
2022-08-05T11:44:05.191Z,1.30
2022-08-05T11:47:09.983Z,1.52
2022-08-05T11:49:42.760Z,1.60
2022-08-05T11:52:12.171Z,1.60
2022-08-05T11:54:43.546Z,1.73
2022-08-05T11:57:28.922Z,1.50
2022-08-05T11:59:59.254Z,1.40
2022-08-05T12:02:33.111Z,1.80
2022-08-05T12:08:07.813Z,1.42
2022-08-05T12:10:38.488Z,1.55
2022-08-05T12:13:27.959Z,1.50
2022-08-05T12:16:14.704Z,1.50
2022-08-05T12:18:52.316Z,1.27
2022-08-05T12:21:30.027Z,1.65
2022-08-05T12:24:04.789Z,1.60
2022-08-05T12:26:44.643Z,1.60
2022-08-05T12:29:22.991Z,1.60
2022-08-05T12:31:55.178Z,1.65
2022-08-05T12:34:28.454Z,1.50
2022-08-05T12:37:21.450Z,1.73
2022-08-05T12:39:51.924Z,2.05
2022-08-05T12:42:25.446Z,1.58
2022-08-05T12:45:02.022Z,1.60
2022-08-05T12:47:31.468Z,1.58
2022-08-05T12:50:03.970Z,1.37
2022-08-05T12:52:42.480Z,2.00
2022-08-05T12:55:26.254Z,1.67
2022-08-05T12:58:50.750Z,1.40
2022-08-05T13:02:03.287Z,2.00
2022-08-05T13:03:41.553Z,1.48
2022-08-05T13:06:17.797Z,1.85
2022-08-05T13:08:51.847Z,1.90
2022-08-05T13:11:59.813Z,1.37
2022-08-05T13:14:15.490Z,1.60
2022-08-05T13:16:58.852Z,1.90
2022-08-05T13:19:40.475Z,1.60
2022-08-05T13:22:29.280Z,1.50
2022-08-05T13:25:08.028Z,1.73
2022-08-05T13:27:54.504Z,1.90
2022-08-05T13:30:33.536Z,1.70
2022-08-05T13:33:03.811Z,1.60
2022-08-05T13:35:50.438Z,1.65
2022-08-05T13:38:30.595Z,1.65
2022-08-05T13:41:00.366Z,1.60
2022-08-05T13:43:43.315Z,1.75
2022-08-05T13:46:16.251Z,1.30
2022-08-05T13:48:58.484Z,1.65
2022-08-05T13:51:40.014Z,1.52
2022-08-05T13:54:13.678Z,1.50
2022-08-05T13:56:51.482Z,1.60
2022-08-05T13:59:24.207Z,1.60
2022-08-05T14:01:56.604Z,1.62
2022-08-05T14:04:50.355Z,1.48
2022-08-05T14:07:56.223Z,1.35
2022-08-05T14:10:28.840Z,1.50
2022-08-05T14:13:00.147Z,1.60
2022-08-05T14:16:05.754Z,1.52
2022-08-05T14:18:18.661Z,1.20
2022-08-05T14:20:54.401Z,1.60
2022-08-05T14:23:25.707Z,1.60
2022-08-05T14:25:58.578Z,1.58
2022-08-05T14:28:32.789Z,1.50
2022-08-05T14:31:02.965Z,1.50
2022-08-05T14:33:59.193Z,1.70
2022-08-05T14:36:21.990Z,1.50
2022-08-05T14:38:51.250Z,1.67
2022-08-05T14:41:19.589Z,1.33
2022-08-05T14:43:57.648Z,1.70
2022-08-05T14:46:30.973Z,1.27
2022-08-05T14:49:06.597Z,1.55
2022-08-05T14:51:42.982Z,1.83
2022-08-05T14:54:28.121Z,1.35
2022-08-05T14:56:59.615Z,1.52
2022-08-05T14:59:29.454Z,1.35
2022-08-05T15:02:14.694Z,1.40
2022-08-05T15:04:45.015Z,1.50
2022-08-05T15:08:06.200Z,1.45
2022-08-05T15:10:09.725Z,1.50
2022-08-05T15:12:59.778Z,1.58
2022-08-05T15:15:54.960Z,1.35
2022-08-05T15:18:17.325Z,1.67
2022-08-05T15:20:46.671Z,1.50
2022-08-05T15:23:15.932Z,1.45
2022-08-05T15:25:52.680Z,1.30
2022-08-05T15:28:27.451Z,1.48
2022-08-05T15:30:56.829Z,1.60
2022-08-05T15:34:04.760Z,1.50
2022-08-05T15:36:17.737Z,1.15
2022-08-05T15:41:01.898Z,1.35
2022-08-05T15:41:56.370Z,1.40
2022-08-05T15:44:30.074Z,1.50
2022-08-05T15:47:01.772Z,1.40
2022-08-05T15:49:48.105Z,1.62
2022-08-05T15:52:29.244Z,1.42
2022-08-05T15:55:16.099Z,1.77
2022-08-05T15:57:45.997Z,1.40
2022-08-05T16:00:25.998Z,1.50
2022-08-05T16:03:01.427Z,1.52
2022-08-05T16:05:30.360Z,1.52
2022-08-05T16:07:58.646Z,1.90
2022-08-05T16:10:28.686Z,1.37
2022-08-05T16:12:57.397Z,1.85
2022-08-05T16:15:32.376Z,1.67
2022-08-05T16:18:04.037Z,1.30
2022-08-05T16:20:32.688Z,1.40
2022-08-05T16:23:00.926Z,1.60
2022-08-05T16:25:32.151Z,1.73
2022-08-05T16:28:05.975Z,1.50
2022-08-05T16:30:36.094Z,1.12
2022-08-05T16:33:04.628Z,1.73
2022-08-05T16:35:34.639Z,1.20
2022-08-05T16:38:18.662Z,1.17
2022-08-05T16:41:00.309Z,1.35
2022-08-05T16:43:34.611Z,1.50
2022-08-05T16:46:23.481Z,1.57
2022-08-05T16:48:53.255Z,1.52
2022-08-05T16:51:24.390Z,1.37
2022-08-05T16:54:02.377Z,1.55
2022-08-05T16:56:36.961Z,1.40
2022-08-05T16:59:10.663Z,1.33
2022-08-05T17:01:54.976Z,1.40
2022-08-05T17:04:27.397Z,1.50
2022-08-05T17:07:00.115Z,1.50
2022-08-05T17:09:31.067Z,1.85
2022-08-05T17:12:50.348Z,1.50
2022-08-05T17:15:09.265Z,1.20
2022-08-05T17:17:42.311Z,1.10
2022-08-05T17:20:14.913Z,1.60
2022-08-05T17:22:44.991Z,1.40
2022-08-05T17:25:33.959Z,1.30
2022-08-05T17:28:02.282Z,1.60
2022-08-05T17:30:30.933Z,1.45
2022-08-05T17:32:59.016Z,1.70
2022-08-05T17:35:27.186Z,1.62
2022-08-05T17:38:04.915Z,1.42
2022-08-05T17:40:33.320Z,1.33
2022-08-05T17:43:02.680Z,1.33
2022-08-05T17:45:38.279Z,1.80
2022-08-05T17:48:08.186Z,1.60
2022-08-05T17:50:36.516Z,1.65
2022-08-05T17:53:05.300Z,2.00
2022-08-05T17:55:39.784Z,1.83
2022-08-05T17:58:12.290Z,1.45
2022-08-05T18:00:45.464Z,1.45
2022-08-05T18:03:48.468Z,1.87
2022-08-05T18:06:12.823Z,2.30
2022-08-05T18:08:52.525Z,3.15
2022-08-05T18:11:24.368Z,3.80
2022-08-05T18:14:07.140Z,4.53
2022-08-05T18:16:51.181Z,5.50
2022-08-05T18:19:22.739Z,5.12
2022-08-05T18:22:09.195Z,5.12
2022-08-05T18:24:40.086Z,4.40
2022-08-05T18:27:18.047Z,4.18
2022-08-05T18:29:53.720Z,4.20
2022-08-05T18:32:27.978Z,4.15
2022-08-05T18:37:34.352Z,3.75
2022-08-05T18:41:51.034Z,3.78
2022-08-05T18:43:00.515Z,2.85
2022-08-05T18:45:41.778Z,2.87
2022-08-05T18:48:11.455Z,2.33
2022-08-05T18:51:01.744Z,2.65
2022-08-05T18:53:50.499Z,2.40
2022-08-05T18:56:21.917Z,2.20
2022-08-05T18:58:54.917Z,1.80
2022-08-05T19:01:47.243Z,1.85
2022-08-05T19:04:23.740Z,2.33
2022-08-05T19:06:53.766Z,7.50
2022-08-05T19:09:23.200Z,4.05
2022-08-05T19:11:59.966Z,2.80
2022-08-05T19:14:44.622Z,2.37
2022-08-05T19:17:19.334Z,2.33
2022-08-05T19:19:49.283Z,1.77
2022-08-05T19:22:18.114Z,1.52
2022-08-05T19:24:54.684Z,1.70
2022-08-05T19:27:27.895Z,2.12
2022-08-05T19:29:59.446Z,1.67
2022-08-05T19:32:28.273Z,24.42
2022-08-05T19:34:57.887Z,16.27
2022-08-05T19:37:29.927Z,8.93
2022-08-05T19:40:15.451Z,5.97
2022-08-05T19:43:05.580Z,3.05
2022-08-05T19:45:33.336Z,4.95
2022-08-05T19:48:14.641Z,6.40
2022-08-05T19:50:43.668Z,3.03
2022-08-05T19:53:12.800Z,3.58
2022-08-05T19:56:14.765Z,2.53
2022-08-05T19:58:30.210Z,3.97
2022-08-05T20:00:58.852Z,2.10
2022-08-05T20:03:27.489Z,1.73
2022-08-05T20:06:11.705Z,1.52
2022-08-05T20:08:47.261Z,2.12
2022-08-05T20:11:17.985Z,2.08
2022-08-05T20:13:58.063Z,1.83
2022-08-05T20:16:27.471Z,1.90
2022-08-05T20:18:56.254Z,1.50
2022-08-05T20:21:25.596Z,1.70
2022-08-05T20:23:53.797Z,1.25
2022-08-05T20:26:27.527Z,1.50
2022-08-05T20:28:57.447Z,1.27
2022-08-05T20:31:42.220Z,1.42
2022-08-05T20:34:18.003Z,1.92
2022-08-05T20:36:48.722Z,19.15
2022-08-05T20:39:18.406Z,16.25
2022-08-05T20:41:47.849Z,12.05
2022-08-05T20:44:30.217Z,6.20
2022-08-05T20:47:01.161Z,2.37
2022-08-05T20:49:29.676Z,1.87
2022-08-05T20:52:01.730Z,2.12
2022-08-05T20:54:43.288Z,1.75
2022-08-05T20:57:42.173Z,1.50
2022-08-05T21:00:21.094Z,1.73
2022-08-05T21:03:01.549Z,2.20
2022-08-05T21:05:48.199Z,2.20
2022-08-05T21:08:19.324Z,2.28
2022-08-05T21:10:48.863Z,1.52
2022-08-05T21:13:26.202Z,1.90
2022-08-05T21:16:06.488Z,1.60
2022-08-05T21:18:35.879Z,1.40
2022-08-05T21:21:04.203Z,1.30
2022-08-05T21:23:37.505Z,1.27
2022-08-05T21:26:08.069Z,1.48
2022-08-05T21:28:47.643Z,1.58
2022-08-05T21:31:16.629Z,2.08
2022-08-05T21:33:47.506Z,1.65
2022-08-05T21:36:27.598Z,1.52
2022-08-05T21:38:58.605Z,1.90
2022-08-05T21:41:33.761Z,1.70
2022-08-05T21:44:04.927Z,1.80
2022-08-05T21:46:34.554Z,1.40
2022-08-05T21:49:07.208Z,1.85
2022-08-05T21:52:22.619Z,1.87
2022-08-05T21:54:28.071Z,1.35
2022-08-05T22:00:02.077Z,1.50
2022-08-05T22:02:41.747Z,1.98
2022-08-05T22:05:12.603Z,1.40
2022-08-05T22:07:58.436Z,1.50
2022-08-05T22:10:28.466Z,1.50
2022-08-05T22:12:59.110Z,1.50
2022-08-05T22:16:04.680Z,1.37
2022-08-05T22:18:25.784Z,1.52
2022-08-05T22:20:55.847Z,1.27
2022-08-05T22:24:02.509Z,1.30
2022-08-05T22:26:50.728Z,1.25
2022-08-05T22:29:26.282Z,1.40
2022-08-05T22:32:02.665Z,1.17
2022-08-05T22:34:32.889Z,1.50
2022-08-05T22:37:03.936Z,1.42
2022-08-05T22:39:34.672Z,1.67
2022-08-05T22:42:10.687Z,1.40
2022-08-05T22:44:42.522Z,1.30
2022-08-05T22:47:29.199Z,1.33
2022-08-05T22:50:19.345Z,1.50
2022-08-05T22:52:52.460Z,1.20
2022-08-05T22:55:22.910Z,1.20
2022-08-05T22:57:52.918Z,1.23
2022-08-05T23:00:23.282Z,1.30
2022-08-05T23:02:53.755Z,1.23
2022-08-05T23:05:22.703Z,1.23
2022-08-05T23:07:51.547Z,1.08
2022-08-05T23:10:23.866Z,1.30
2022-08-05T23:12:54.627Z,1.35
2022-08-05T23:15:29.825Z,1.58
2022-08-05T23:18:11.329Z,1.50
2022-08-05T23:20:43.144Z,1.30
2022-08-05T23:23:11.492Z,1.10
2022-08-05T23:25:53.630Z,1.23
2022-08-05T23:28:28.685Z,1.35
2022-08-05T23:31:16.728Z,1.42
2022-08-05T23:34:04.518Z,1.30
2022-08-05T23:36:39.779Z,1.42
2022-08-05T23:39:17.260Z,1.33
2022-08-05T23:42:00.534Z,1.17
2022-08-05T23:44:31.354Z,1.23
2022-08-05T23:47:02.623Z,1.35
2022-08-05T23:49:47.054Z,1.50
2022-08-05T23:52:29.302Z,1.30
2022-08-05T23:55:09.477Z,1.50
2022-08-05T23:57:39.026Z,1.40
